Airfield :
LOGIN :

Register | Disclaimer

   EN    FR    IT 

 










Legend :    VFR   Marginal VFR   IFR   Intensive IFR   Very Intensive IFR
Visi :
Ceiling :
>= 8 km
>= 3000ft
5 to 8 km
1000 to 3000 ft
1500m to 5 km
500 to 1000 ft
800 to 1500m
200 to 500 ft
< 800m
< 200 ft
Symbols :   Thunderstorms  Fog  Heavy snow  Heavy precipitations  Wind > 20 kt
SIGMETs :     Misc.  Thunderstorms  Icing  Turbulence  Mountain Waves  Volcanic Ashes






- Airport Elevation : 505 ft
- IATA code : SXB


LFST - Strasbourg

CURRENT METAR :
  • 192100Z AUTO 31001KT 1200 0600 R23/0900U R05/1200U BCFG NSC 05/05 Q1018 BECMG 9999 NSW

EXPIRED METARs :
  • 192030Z AUTO 33002KT 1600 0600 R23/0700D R05/1100U BCFG FEW046 06/05 Q1019 BECMG 9999 NSW
  • 192000Z AUTO 00000KT 6000 0600 R23/0700D R05/P2000 BCFG NSC 07/06 Q1019 NOSIG
  • 191930Z AUTO 05002KT 6000 NSC 08/06 Q1019 NOSIG
  • 191900Z AUTO 04001KT CAVOK 09/07 Q1019 NOSIG
  • 191830Z AUTO 00000KT CAVOK 09/07 Q1018 NOSIG

TAF TAF LFST
Valid from the 19 at 18:00 until the 20 at 18:00 UTC


191700Z 1918/2018 VRB03KT 9999 FEW035 BKN070
TEMPO 2002/2009 3000 BR
PROB40
TEMPO 2003/2007 0300 FG VV///



MET'MAP, your aeronautical weather chart ! - Copyright ORBIFLY December 2007 - Disclaimer

ORBIFLY MET'MAP TEAM :

Programming & Development : Alexandra Zaïnal
Concept & original design : Baudouin d'Aumeries
Assistance for programming : Marc-Olivier Méhu
Technical & hardware support : Manuel Goepfert

Contact : metmap@orbifly.com




SOURCES & CREDITS :

   NOAA